Aeroporto :







RITROVATECI SU...

 
LOGIN :

Iscrizione | Disclaimer

   EN    FR    IT 

 









Sommario :    VFR   VFR Marginale   IFR   IFR Intensivo   IFR Molto Intensivo
Visibilità : 
Base nubi : 
>= 8 km
>= 3000ft
5 / 8 km
1000 / 3000 ft
1500m / 5 km
500 / 1000 ft
800 / 1500m
200 / 500 ft
< 800m
< 200 ft
Simboli :   Temporali  Nebbia  Neve Forte  Precipitazioni Forti  Vento > 20 kt






- Altitudine del aeroporto : 474 ft


KPTD - Potsdam Municipal-Damon field

ULTIMO METAR :
  • 191815Z AUTO 25007KT 5SM -SN OVC015 M10/M13 A2979 RMK AO2

METARs OBSOLETI :
  • 191755Z AUTO 27008KT 8SM -SN OVC015 M10/M13 A2978 RMK AO2
  • 191735Z AUTO 27008KT 8SM -SN OVC015 M11/M13 A2978 RMK AO2
  • 191715Z AUTO 24007KT 4SM -SN BKN014 BKN027 OVC032 M11/M13 A2977 RMK AO2
  • 191655Z AUTO 25007KT 4SM -SN FEW012 SCT025 BKN032 M11/M13 A2977 RMK AO2
  • 191635Z AUTO 24008KT 3SM -SN FEW014 BKN024 BKN030 M11/M13 A2976 RMK AO2
  • 191615Z AUTO 25007KT 4SM -SN FEW014 BKN022 BKN028 M11/M13 A2976 RMK AO2
  • 191555Z AUTO 27006KT 7SM -SN FEW024 BKN029 OVC039 M11/M14 A2976 RMK AO2
  • 191535Z AUTO 27007KT 8SM -SN FEW014 FEW028 OVC039 M11/M14 A2975 RMK AO2

TAF N/A



MetMap, La meteo Aeronautica in un colpo d'occhio ! - Copyright ORBIFLY Dicembre 2007 - Disclaimer

ORBIFLY MET'MAP TEAM :

Programmazione e sviluppo : Alexandra Zaïnal
Concezione : Baudouin d'Aumeries
Aiuto per la programmazione : Marc-Olivier Méhu
Supporto tecnico e logistico : Manuel Goepfert
Aiuto per la traduzione : Arnaldo La Scala

Contatto : metmap@orbifly.com




FONTI E CREDITI :

   NOAA